sensor_id;sensor_type;location;lat;lon;timestamp;pressure;altitude;pressure_sealevel;temperature;humidity
76808;BME280;65758;45.458;11.062;2023-09-18T00:00:48;101197.56;;;22.27;66.47
76808;BME280;65758;45.458;11.062;2023-09-18T00:03:19;101199.70;;;22.24;66.45
76808;BME280;65758;45.458;11.062;2023-09-18T00:05:47;101204.67;;;22.24;66.41
76808;BME280;65758;45.458;11.062;2023-09-18T00:08:15;101195.10;;;22.22;66.51
76808;BME280;65758;45.458;11.062;2023-09-18T00:10:43;101190.67;;;22.24;66.40
76808;BME280;65758;45.458;11.062;2023-09-18T00:13:13;101193.20;;;22.24;66.46
76808;BME280;65758;45.458;11.062;2023-09-18T00:15:40;101200.08;;;22.22;66.57
76808;BME280;65758;45.458;11.062;2023-09-18T00:18:07;101199.19;;;22.21;66.58
76808;BME280;65758;45.458;11.062;2023-09-18T00:20:34;101191.77;;;22.20;66.58
76808;BME280;65758;45.458;11.062;2023-09-18T00:23:02;101185.43;;;22.19;66.68
76808;BME280;65758;45.458;11.062;2023-09-18T00:25:29;101183.77;;;22.17;66.76
76808;BME280;65758;45.458;11.062;2023-09-18T00:27:57;101188.34;;;22.12;66.87
76808;BME280;65758;45.458;11.062;2023-09-18T00:30:24;101192.10;;;22.10;67.03
76808;BME280;65758;45.458;11.062;2023-09-18T00:32:51;101190.15;;;22.10;67.06
76808;BME280;65758;45.458;11.062;2023-09-18T00:35:18;101188.94;;;22.12;67.06
76808;BME280;65758;45.458;11.062;2023-09-18T00:37:45;101189.10;;;22.14;66.97
76808;BME280;65758;45.458;11.062;2023-09-18T00:40:12;101176.75;;;22.17;66.85
76808;BME280;65758;45.458;11.062;2023-09-18T00:42:39;101155.34;;;22.18;66.85
76808;BME280;65758;45.458;11.062;2023-09-18T00:45:06;101156.02;;;22.16;66.89
76808;BME280;65758;45.458;11.062;2023-09-18T00:47:33;101158.39;;;22.14;66.96
76808;BME280;65758;45.458;11.062;2023-09-18T00:50:03;101154.77;;;22.13;67.07
76808;BME280;65758;45.458;11.062;2023-09-18T00:52:31;101156.99;;;22.13;67.16
76808;BME280;65758;45.458;11.062;2023-09-18T00:55:00;101156.73;;;22.16;67.00
76808;BME280;65758;45.458;11.062;2023-09-18T00:57:28;101147.37;;;22.18;66.95
76808;BME280;65758;45.458;11.062;2023-09-18T00:59:55;101129.59;;;22.16;66.96
76808;BME280;65758;45.458;11.062;2023-09-18T01:02:23;101128.50;;;22.13;67.07
76808;BME280;65758;45.458;11.062;2023-09-18T01:04:50;101127.42;;;22.09;67.22
76808;BME280;65758;45.458;11.062;2023-09-18T01:07:17;101126.19;;;22.05;67.38
76808;BME280;65758;45.458;11.062;2023-09-18T01:09:44;101126.65;;;22.04;67.48
76808;BME280;65758;45.458;11.062;2023-09-18T01:12:33;101122.13;;;22.05;67.41
76808;BME280;65758;45.458;11.062;2023-09-18T01:15:12;101115.52;;;22.06;67.47
76808;BME280;65758;45.458;11.062;2023-09-18T01:17:42;101101.03;;;22.07;67.41
76808;BME280;65758;45.458;11.062;2023-09-18T01:20:10;101103.55;;;22.07;67.44
76808;BME280;65758;45.458;11.062;2023-09-18T01:22:38;101097.69;;;22.07;67.47
76808;BME280;65758;45.458;11.062;2023-09-18T01:25:05;101089.52;;;22.09;67.49
76808;BME280;65758;45.458;11.062;2023-09-18T01:27:33;101093.29;;;22.11;67.34
76808;BME280;65758;45.458;11.062;2023-09-18T01:30:00;101088.52;;;22.10;67.45
76808;BME280;65758;45.458;11.062;2023-09-18T01:32:30;101074.95;;;22.09;67.43
76808;BME280;65758;45.458;11.062;2023-09-18T01:35:00;101074.59;;;22.08;67.40
76808;BME280;65758;45.458;11.062;2023-09-18T01:37:30;101066.52;;;22.01;67.54
76808;BME280;65758;45.458;11.062;2023-09-18T01:39:58;101050.80;;;21.97;67.72
76808;BME280;65758;45.458;11.062;2023-09-18T01:42:27;101048.33;;;21.91;67.81
76808;BME280;65758;45.458;11.062;2023-09-18T01:44:54;101057.55;;;21.87;67.99
76808;BME280;65758;45.458;11.062;2023-09-18T01:47:22;101046.58;;;21.87;67.85
76808;BME280;65758;45.458;11.062;2023-09-18T01:50:03;101043.34;;;21.88;67.90
76808;BME280;65758;45.458;11.062;2023-09-18T01:52:32;101045.84;;;21.89;67.85
76808;BME280;65758;45.458;11.062;2023-09-18T01:54:58;101049.44;;;21.92;67.79
76808;BME280;65758;45.458;11.062;2023-09-18T01:57:25;101054.77;;;21.93;67.70
76808;BME280;65758;45.458;11.062;2023-09-18T01:59:52;101059.10;;;21.97;67.68
76808;BME280;65758;45.458;11.062;2023-09-18T02:02:19;101066.66;;;21.99;67.54
76808;BME280;65758;45.458;11.062;2023-09-18T02:05:06;101067.27;;;21.99;67.65
76808;BME280;65758;45.458;11.062;2023-09-18T02:07:35;101071.20;;;22.02;67.45
76808;BME280;65758;45.458;11.062;2023-09-18T02:10:03;101073.23;;;22.04;67.34
76808;BME280;65758;45.458;11.062;2023-09-18T02:12:30;101074.52;;;22.04;67.25
76808;BME280;65758;45.458;11.062;2023-09-18T02:15:00;101074.70;;;22.03;67.17
76808;BME280;65758;45.458;11.062;2023-09-18T02:17:31;101071.81;;;22.02;67.13
76808;BME280;65758;45.458;11.062;2023-09-18T02:19:58;101071.65;;;22.01;67.25
76808;BME280;65758;45.458;11.062;2023-09-18T02:22:26;101072.77;;;21.96;67.47
76808;BME280;65758;45.458;11.062;2023-09-18T02:24:53;101067.05;;;21.91;67.51
76808;BME280;65758;45.458;11.062;2023-09-18T02:27:20;101067.29;;;21.89;67.58
76808;BME280;65758;45.458;11.062;2023-09-18T02:29:47;101066.97;;;21.88;67.42
76808;BME280;65758;45.458;11.062;2023-09-18T02:32:16;101057.27;;;21.88;67.48
76808;BME280;65758;45.458;11.062;2023-09-18T02:34:43;101048.75;;;21.88;67.39
76808;BME280;65758;45.458;11.062;2023-09-18T02:37:10;101048.90;;;21.88;67.29
76808;BME280;65758;45.458;11.062;2023-09-18T02:39:37;101056.83;;;21.87;67.35
76808;BME280;65758;45.458;11.062;2023-09-18T02:42:04;101058.73;;;21.86;67.25
76808;BME280;65758;45.458;11.062;2023-09-18T02:44:31;101054.93;;;21.88;67.33
76808;BME280;65758;45.458;11.062;2023-09-18T02:46:58;101052.91;;;21.88;67.20
76808;BME280;65758;45.458;11.062;2023-09-18T02:49:25;101056.64;;;21.91;67.12
76808;BME280;65758;45.458;11.062;2023-09-18T02:51:52;101063.88;;;21.92;67.09
76808;BME280;65758;45.458;11.062;2023-09-18T02:54:19;101069.20;;;21.95;67.13
76808;BME280;65758;45.458;11.062;2023-09-18T02:56:46;101070.35;;;21.98;67.03
76808;BME280;65758;45.458;11.062;2023-09-18T02:59:12;101059.09;;;21.98;66.79
76808;BME280;65758;45.458;11.062;2023-09-18T03:01:40;101046.06;;;21.96;66.72
76808;BME280;65758;45.458;11.062;2023-09-18T03:04:07;101022.87;;;21.90;66.88
76808;BME280;65758;45.458;11.062;2023-09-18T03:06:38;101010.08;;;21.86;67.13
76808;BME280;65758;45.458;11.062;2023-09-18T03:09:06;101007.79;;;21.82;67.38
76808;BME280;65758;45.458;11.062;2023-09-18T03:11:33;101011.94;;;21.80;67.72
76808;BME280;65758;45.458;11.062;2023-09-18T03:14:00;101016.92;;;21.81;67.80
76808;BME280;65758;45.458;11.062;2023-09-18T03:16:27;101010.06;;;21.83;67.66
76808;BME280;65758;45.458;11.062;2023-09-18T03:18:54;101015.60;;;21.85;67.68
76808;BME280;65758;45.458;11.062;2023-09-18T03:21:21;101009.83;;;21.90;67.85
76808;BME280;65758;45.458;11.062;2023-09-18T03:23:48;101003.93;;;21.96;67.81
76808;BME280;65758;45.458;11.062;2023-09-18T03:26:15;100998.73;;;21.99;67.75
76808;BME280;65758;45.458;11.062;2023-09-18T03:28:42;100999.20;;;22.00;67.81
76808;BME280;65758;45.458;11.062;2023-09-18T03:31:10;100998.40;;;22.01;67.68
76808;BME280;65758;45.458;11.062;2023-09-18T03:33:37;100997.56;;;22.03;67.58
76808;BME280;65758;45.458;11.062;2023-09-18T03:36:04;100997.05;;;22.03;67.38
76808;BME280;65758;45.458;11.062;2023-09-18T03:38:33;100997.88;;;22.04;67.18
76808;BME280;65758;45.458;11.062;2023-09-18T03:41:02;101002.21;;;22.04;67.13
76808;BME280;65758;45.458;11.062;2023-09-18T03:43:29;101007.02;;;22.04;67.07
76808;BME280;65758;45.458;11.062;2023-09-18T03:46:04;101004.91;;;22.02;67.06
76808;BME280;65758;45.458;11.062;2023-09-18T03:48:35;101000.09;;;22.00;67.01
76808;BME280;65758;45.458;11.062;2023-09-18T03:51:05;101006.65;;;21.97;66.93
76808;BME280;65758;45.458;11.062;2023-09-18T03:53:33;101001.40;;;21.93;67.02
76808;BME280;65758;45.458;11.062;2023-09-18T03:56:01;101002.30;;;21.91;67.11
76808;BME280;65758;45.458;11.062;2023-09-18T03:58:28;101001.41;;;21.92;67.00
76808;BME280;65758;45.458;11.062;2023-09-18T04:00:55;101006.85;;;21.93;67.04
76808;BME280;65758;45.458;11.062;2023-09-18T04:03:22;101002.33;;;21.95;67.04
76808;BME280;65758;45.458;11.062;2023-09-18T04:05:49;101008.96;;;21.94;66.92
76808;BME280;65758;45.458;11.062;2023-09-18T04:08:16;101008.02;;;21.93;66.96
76808;BME280;65758;45.458;11.062;2023-09-18T04:10:43;101005.68;;;21.93;67.00
76808;BME280;65758;45.458;11.062;2023-09-18T04:13:11;100999.61;;;21.90;66.94
76808;BME280;65758;45.458;11.062;2023-09-18T04:15:38;101000.25;;;21.88;67.05
76808;BME280;65758;45.458;11.062;2023-09-18T04:18:06;100992.36;;;21.86;67.10
76808;BME280;65758;45.458;11.062;2023-09-18T04:20:33;100993.08;;;21.86;67.13
76808;BME280;65758;45.458;11.062;2023-09-18T04:23:22;101002.38;;;21.87;67.14
76808;BME280;65758;45.458;11.062;2023-09-18T04:25:52;101004.04;;;21.89;67.20
76808;BME280;65758;45.458;11.062;2023-09-18T04:28:21;101016.90;;;21.90;67.29
76808;BME280;65758;45.458;11.062;2023-09-18T04:30:48;101028.31;;;21.93;67.58
76808;BME280;65758;45.458;11.062;2023-09-18T04:33:16;101033.27;;;21.99;67.79
76808;BME280;65758;45.458;11.062;2023-09-18T04:35:45;101031.23;;;22.06;68.12
76808;BME280;65758;45.458;11.062;2023-09-18T04:38:13;101028.86;;;22.14;67.49
76808;BME280;65758;45.458;11.062;2023-09-18T04:40:44;101038.86;;;22.16;67.79
76808;BME280;65758;45.458;11.062;2023-09-18T04:43:13;101033.92;;;22.20;67.48
76808;BME280;65758;45.458;11.062;2023-09-18T04:45:40;101020.32;;;22.15;67.23
76808;BME280;65758;45.458;11.062;2023-09-18T04:48:10;101018.34;;;22.07;67.48
76808;BME280;65758;45.458;11.062;2023-09-18T04:50:37;101016.73;;;22.03;67.88
76808;BME280;65758;45.458;11.062;2023-09-18T04:53:04;101012.27;;;22.03;67.89
76808;BME280;65758;45.458;11.062;2023-09-18T04:55:31;101018.02;;;22.06;67.90
76808;BME280;65758;45.458;11.062;2023-09-18T04:57:59;101022.29;;;22.09;68.11
76808;BME280;65758;45.458;11.062;2023-09-18T05:00:26;101021.93;;;22.15;67.86
76808;BME280;65758;45.458;11.062;2023-09-18T05:02:57;101021.13;;;22.18;67.56
76808;BME280;65758;45.458;11.062;2023-09-18T05:05:27;101021.63;;;22.17;67.49
76808;BME280;65758;45.458;11.062;2023-09-18T05:07:56;101021.64;;;22.16;67.44
76808;BME280;65758;45.458;11.062;2023-09-18T05:10:24;101025.52;;;22.13;67.34
76808;BME280;65758;45.458;11.062;2023-09-18T05:12:51;101028.87;;;22.13;67.46
76808;BME280;65758;45.458;11.062;2023-09-18T05:15:26;101034.60;;;22.14;67.39
76808;BME280;65758;45.458;11.062;2023-09-18T05:17:53;101042.11;;;22.16;67.49
76808;BME280;65758;45.458;11.062;2023-09-18T05:20:25;101039.55;;;22.19;67.49
76808;BME280;65758;45.458;11.062;2023-09-18T05:22:52;101033.95;;;22.26;67.50
76808;BME280;65758;45.458;11.062;2023-09-18T05:25:23;101029.63;;;22.25;67.30
76808;BME280;65758;45.458;11.062;2023-09-18T05:27:52;101023.70;;;22.22;67.38
76808;BME280;65758;45.458;11.062;2023-09-18T05:30:34;101027.10;;;22.21;67.44
76808;BME280;65758;45.458;11.062;2023-09-18T05:33:02;101025.10;;;22.20;67.30
76808;BME280;65758;45.458;11.062;2023-09-18T05:35:34;101028.79;;;22.19;67.30
76808;BME280;65758;45.458;11.062;2023-09-18T05:38:03;101021.14;;;22.20;67.31
76808;BME280;65758;45.458;11.062;2023-09-18T05:40:30;101018.30;;;22.20;67.14
76808;BME280;65758;45.458;11.062;2023-09-18T05:42:58;101021.79;;;22.23;67.25
76808;BME280;65758;45.458;11.062;2023-09-18T05:45:25;101025.63;;;22.28;67.32
76808;BME280;65758;45.458;11.062;2023-09-18T05:47:54;101030.88;;;22.36;67.31
76808;BME280;65758;45.458;11.062;2023-09-18T05:50:28;101037.83;;;22.46;67.03
76808;BME280;65758;45.458;11.062;2023-09-18T05:52:57;101036.09;;;22.51;66.82
76808;BME280;65758;45.458;11.062;2023-09-18T05:55:31;101028.52;;;22.55;66.72
76808;BME280;65758;45.458;11.062;2023-09-18T05:57:59;101029.27;;;22.58;66.81
76808;BME280;65758;45.458;11.062;2023-09-18T06:00:26;101031.63;;;22.60;66.74
76808;BME280;65758;45.458;11.062;2023-09-18T06:02:53;101039.56;;;22.62;66.78
76808;BME280;65758;45.458;11.062;2023-09-18T06:05:20;101045.77;;;22.66;66.64
76808;BME280;65758;45.458;11.062;2023-09-18T06:07:48;101041.25;;;22.69;66.55
76808;BME280;65758;45.458;11.062;2023-09-18T06:10:17;101036.90;;;22.72;66.59
76808;BME280;65758;45.458;11.062;2023-09-18T06:12:44;101034.14;;;22.73;66.42
76808;BME280;65758;45.458;11.062;2023-09-18T06:15:12;101027.60;;;22.73;66.40
76808;BME280;65758;45.458;11.062;2023-09-18T06:17:41;101029.88;;;22.75;66.52
76808;BME280;65758;45.458;11.062;2023-09-18T06:20:10;101037.31;;;22.78;66.49
76808;BME280;65758;45.458;11.062;2023-09-18T06:22:39;101049.10;;;22.85;66.55
76808;BME280;65758;45.458;11.062;2023-09-18T06:25:07;101060.66;;;22.93;66.92
76808;BME280;65758;45.458;11.062;2023-09-18T06:27:37;101063.02;;;22.99;67.30
76808;BME280;65758;45.458;11.062;2023-09-18T06:30:05;101059.87;;;23.05;67.66
76808;BME280;65758;45.458;11.062;2023-09-18T06:32:33;101041.62;;;23.11;67.90
76808;BME280;65758;45.458;11.062;2023-09-18T06:35:00;101044.48;;;23.17;68.19
76808;BME280;65758;45.458;11.062;2023-09-18T06:37:27;101045.44;;;23.24;68.28
76808;BME280;65758;45.458;11.062;2023-09-18T06:39:55;101044.68;;;23.29;68.41
76808;BME280;65758;45.458;11.062;2023-09-18T06:42:23;101044.29;;;23.33;68.41
76808;BME280;65758;45.458;11.062;2023-09-18T06:44:56;101037.83;;;23.38;68.46
76808;BME280;65758;45.458;11.062;2023-09-18T06:47:23;101038.83;;;23.43;68.20
76808;BME280;65758;45.458;11.062;2023-09-18T06:49:53;101026.01;;;23.49;68.04
76808;BME280;65758;45.458;11.062;2023-09-18T06:52:20;101022.52;;;23.53;67.93
76808;BME280;65758;45.458;11.062;2023-09-18T06:54:47;101028.23;;;23.58;67.89
76808;BME280;65758;45.458;11.062;2023-09-18T06:57:14;101039.12;;;23.62;67.84
76808;BME280;65758;45.458;11.062;2023-09-18T06:59:41;101047.71;;;23.66;67.75
76808;BME280;65758;45.458;11.062;2023-09-18T07:02:09;101049.83;;;23.69;67.63
76808;BME280;65758;45.458;11.062;2023-09-18T07:04:36;101048.52;;;23.72;67.41
76808;BME280;65758;45.458;11.062;2023-09-18T07:07:03;101038.48;;;23.76;67.45
76808;BME280;65758;45.458;11.062;2023-09-18T07:09:31;101013.19;;;23.82;67.56
76808;BME280;65758;45.458;11.062;2023-09-18T07:12:02;101007.67;;;23.88;67.73
76808;BME280;65758;45.458;11.062;2023-09-18T07:14:30;101022.53;;;23.92;67.70
76808;BME280;65758;45.458;11.062;2023-09-18T07:16:57;101023.14;;;23.95;67.56
76808;BME280;65758;45.458;11.062;2023-09-18T07:19:24;101014.48;;;24.00;67.40
76808;BME280;65758;45.458;11.062;2023-09-18T07:21:53;100999.80;;;24.07;67.47
76808;BME280;65758;45.458;11.062;2023-09-18T07:24:19;100997.17;;;24.16;67.33
76808;BME280;65758;45.458;11.062;2023-09-18T07:26:48;101004.38;;;24.31;67.20
76808;BME280;65758;45.458;11.062;2023-09-18T07:29:15;101008.69;;;24.41;66.76
76808;BME280;65758;45.458;11.062;2023-09-18T07:31:43;100996.45;;;24.51;66.42
76808;BME280;65758;45.458;11.062;2023-09-18T07:34:10;100982.02;;;24.57;66.31
76808;BME280;65758;45.458;11.062;2023-09-18T07:36:40;100981.23;;;24.60;66.13
76808;BME280;65758;45.458;11.062;2023-09-18T07:39:07;100983.70;;;24.60;66.29
76808;BME280;65758;45.458;11.062;2023-09-18T07:41:34;100983.31;;;24.57;66.49
76808;BME280;65758;45.458;11.062;2023-09-18T07:44:01;100977.47;;;24.53;66.48
76808;BME280;65758;45.458;11.062;2023-09-18T07:46:28;100978.63;;;24.49;66.64
76808;BME280;65758;45.458;11.062;2023-09-18T07:48:55;100968.90;;;24.46;66.53
76808;BME280;65758;45.458;11.062;2023-09-18T07:51:22;100965.51;;;24.43;66.60
76808;BME280;65758;45.458;11.062;2023-09-18T07:53:50;100983.48;;;24.42;66.31
76808;BME280;65758;45.458;11.062;2023-09-18T07:56:17;100984.31;;;24.45;66.19
76808;BME280;65758;45.458;11.062;2023-09-18T07:58:45;100979.69;;;24.52;65.98
76808;BME280;65758;45.458;11.062;2023-09-18T08:01:14;100983.39;;;24.59;65.90
76808;BME280;65758;45.458;11.062;2023-09-18T08:03:43;100978.11;;;24.73;66.04
76808;BME280;65758;45.458;11.062;2023-09-18T08:06:10;100983.05;;;24.96;66.04
76808;BME280;65758;45.458;11.062;2023-09-18T08:08:38;100992.55;;;25.15;65.68
76808;BME280;65758;45.458;11.062;2023-09-18T08:11:07;100993.41;;;25.36;65.20
76808;BME280;65758;45.458;11.062;2023-09-18T08:13:37;100985.57;;;25.60;64.79
76808;BME280;65758;45.458;11.062;2023-09-18T08:16:06;100980.00;;;25.80;64.24
76808;BME280;65758;45.458;11.062;2023-09-18T08:18:34;100979.75;;;25.96;63.82
76808;BME280;65758;45.458;11.062;2023-09-18T08:21:01;100977.35;;;26.09;63.57
76808;BME280;65758;45.458;11.062;2023-09-18T08:23:28;100980.89;;;26.15;63.12
76808;BME280;65758;45.458;11.062;2023-09-18T08:25:55;100983.84;;;26.18;62.99
76808;BME280;65758;45.458;11.062;2023-09-18T08:28:24;100974.75;;;26.18;63.02
76808;BME280;65758;45.458;11.062;2023-09-18T08:30:50;100973.25;;;26.21;63.28
76808;BME280;65758;45.458;11.062;2023-09-18T08:33:17;100968.59;;;26.23;63.23
76808;BME280;65758;45.458;11.062;2023-09-18T08:35:44;100970.95;;;26.20;63.34
76808;BME280;65758;45.458;11.062;2023-09-18T08:38:16;100977.43;;;26.19;63.60
76808;BME280;65758;45.458;11.062;2023-09-18T08:40:44;100972.73;;;26.16;63.53
76808;BME280;65758;45.458;11.062;2023-09-18T08:43:14;100969.90;;;26.11;63.43
76808;BME280;65758;45.458;11.062;2023-09-18T08:45:55;100967.01;;;26.04;63.42
76808;BME280;65758;45.458;11.062;2023-09-18T08:48:28;100973.02;;;25.96;63.64
76808;BME280;65758;45.458;11.062;2023-09-18T08:51:06;100973.04;;;25.92;63.82
76808;BME280;65758;45.458;11.062;2023-09-18T08:53:35;100958.54;;;25.87;64.02
76808;BME280;65758;45.458;11.062;2023-09-18T08:56:04;100953.61;;;25.83;64.23
76808;BME280;65758;45.458;11.062;2023-09-18T08:58:32;100961.20;;;25.80;64.08
76808;BME280;65758;45.458;11.062;2023-09-18T09:01:03;100961.36;;;25.78;64.04
76808;BME280;65758;45.458;11.062;2023-09-18T09:03:41;100973.83;;;25.79;63.94
76808;BME280;65758;45.458;11.062;2023-09-18T09:06:12;100984.29;;;25.80;63.94
76808;BME280;65758;45.458;11.062;2023-09-18T09:08:39;100992.65;;;25.81;63.91
76808;BME280;65758;45.458;11.062;2023-09-18T09:11:07;100995.04;;;25.79;64.10
76808;BME280;65758;45.458;11.062;2023-09-18T09:13:34;100987.74;;;25.77;64.31
76808;BME280;65758;45.458;11.062;2023-09-18T09:16:12;100985.52;;;25.76;64.12
76808;BME280;65758;45.458;11.062;2023-09-18T09:18:48;100988.11;;;25.75;64.13
76808;BME280;65758;45.458;11.062;2023-09-18T09:21:16;100978.02;;;25.75;64.12
76808;BME280;65758;45.458;11.062;2023-09-18T09:23:51;100971.63;;;25.77;64.08
76808;BME280;65758;45.458;11.062;2023-09-18T09:26:22;100965.40;;;25.82;64.40
76808;BME280;65758;45.458;11.062;2023-09-18T09:28:50;100967.51;;;25.93;64.26
76808;BME280;65758;45.458;11.062;2023-09-18T09:31:29;100964.50;;;26.02;64.19
76808;BME280;65758;45.458;11.062;2023-09-18T09:33:57;100959.63;;;26.05;64.10
76808;BME280;65758;45.458;11.062;2023-09-18T09:36:26;100957.48;;;26.08;63.80
76808;BME280;65758;45.458;11.062;2023-09-18T09:38:57;100971.68;;;26.11;63.84
76808;BME280;65758;45.458;11.062;2023-09-18T09:41:27;100971.17;;;26.13;63.65
76808;BME280;65758;45.458;11.062;2023-09-18T09:43:58;100971.41;;;26.13;63.70
76808;BME280;65758;45.458;11.062;2023-09-18T09:46:25;100971.38;;;26.10;63.57
76808;BME280;65758;45.458;11.062;2023-09-18T09:49:04;100971.56;;;26.05;63.72
76808;BME280;65758;45.458;11.062;2023-09-18T09:51:33;100973.19;;;26.00;63.71
76808;BME280;65758;45.458;11.062;2023-09-18T09:54:01;100981.95;;;25.92;63.57
76808;BME280;65758;45.458;11.062;2023-09-18T09:56:45;100990.73;;;25.85;63.72
76808;BME280;65758;45.458;11.062;2023-09-18T09:59:14;100995.77;;;25.77;63.74
76808;BME280;65758;45.458;11.062;2023-09-18T10:01:42;101002.95;;;25.71;63.90
76808;BME280;65758;45.458;11.062;2023-09-18T10:04:16;100999.25;;;25.64;63.88
76808;BME280;65758;45.458;11.062;2023-09-18T10:07:08;100997.38;;;25.57;64.12
76808;BME280;65758;45.458;11.062;2023-09-18T10:09:36;100992.85;;;25.48;64.31
76808;BME280;65758;45.458;11.062;2023-09-18T10:12:10;100992.66;;;25.40;64.49
76808;BME280;65758;45.458;11.062;2023-09-18T10:14:38;100979.55;;;25.35;64.53
76808;BME280;65758;45.458;11.062;2023-09-18T10:17:26;100977.94;;;25.30;64.56
76808;BME280;65758;45.458;11.062;2023-09-18T10:20:07;100978.64;;;25.27;64.75
76808;BME280;65758;45.458;11.062;2023-09-18T10:22:46;100969.61;;;25.25;64.70
76808;BME280;65758;45.458;11.062;2023-09-18T10:25:21;100964.28;;;25.27;64.57
76808;BME280;65758;45.458;11.062;2023-09-18T10:27:51;100962.98;;;25.30;64.49
76808;BME280;65758;45.458;11.062;2023-09-18T10:30:20;100959.36;;;25.31;64.58
76808;BME280;65758;45.458;11.062;2023-09-18T10:32:50;100952.43;;;25.33;64.62
76808;BME280;65758;45.458;11.062;2023-09-18T10:35:18;100945.89;;;25.34;64.54
76808;BME280;65758;45.458;11.062;2023-09-18T10:37:48;100944.66;;;25.36;64.70
76808;BME280;65758;45.458;11.062;2023-09-18T10:40:15;100945.08;;;25.41;64.68
76808;BME280;65758;45.458;11.062;2023-09-18T10:42:44;100942.24;;;25.48;64.60
76808;BME280;65758;45.458;11.062;2023-09-18T10:45:13;100931.48;;;25.56;64.25
76808;BME280;65758;45.458;11.062;2023-09-18T10:47:44;100927.41;;;25.63;64.16
76808;BME280;65758;45.458;11.062;2023-09-18T10:50:25;100922.34;;;25.68;64.14
76808;BME280;65758;45.458;11.062;2023-09-18T10:52:52;100924.27;;;25.72;64.07
76808;BME280;65758;45.458;11.062;2023-09-18T10:55:21;100921.99;;;25.75;63.98
76808;BME280;65758;45.458;11.062;2023-09-18T10:57:58;100920.00;;;25.79;63.87
76808;BME280;65758;45.458;11.062;2023-09-18T11:00:27;100916.50;;;25.86;63.69
76808;BME280;65758;45.458;11.062;2023-09-18T11:03:12;100914.33;;;25.91;63.44
76808;BME280;65758;45.458;11.062;2023-09-18T11:05:39;100910.23;;;25.98;63.09
76808;BME280;65758;45.458;11.062;2023-09-18T11:08:26;100920.13;;;26.09;62.89
76808;BME280;65758;45.458;11.062;2023-09-18T11:11:00;100922.45;;;26.28;62.37
76808;BME280;65758;45.458;11.062;2023-09-18T11:13:34;100928.45;;;26.44;61.90
76808;BME280;65758;45.458;11.062;2023-09-18T11:16:03;100928.95;;;26.57;61.66
76808;BME280;65758;45.458;11.062;2023-09-18T11:18:39;100923.84;;;26.67;61.46
76808;BME280;65758;45.458;11.062;2023-09-18T11:21:11;100924.09;;;26.81;61.21
76808;BME280;65758;45.458;11.062;2023-09-18T11:23:39;100918.58;;;26.93;60.94
76808;BME280;65758;45.458;11.062;2023-09-18T11:26:15;100919.05;;;27.05;60.59
76808;BME280;65758;45.458;11.062;2023-09-18T11:28:42;100908.69;;;27.16;60.43
76808;BME280;65758;45.458;11.062;2023-09-18T11:31:10;100898.89;;;27.29;59.97
76808;BME280;65758;45.458;11.062;2023-09-18T11:33:40;100884.50;;;27.37;59.56
76808;BME280;65758;45.458;11.062;2023-09-18T11:36:14;100874.46;;;27.43;58.95
76808;BME280;65758;45.458;11.062;2023-09-18T11:38:56;100865.02;;;27.49;58.88
76808;BME280;65758;45.458;11.062;2023-09-18T11:41:30;100861.50;;;27.57;58.71
76808;BME280;65758;45.458;11.062;2023-09-18T11:46:54;100844.61;;;27.79;57.65
76808;BME280;65758;45.458;11.062;2023-09-18T11:49:23;100843.60;;;27.87;57.18
76808;BME280;65758;45.458;11.062;2023-09-18T11:51:54;100844.25;;;27.94;57.04
76808;BME280;65758;45.458;11.062;2023-09-18T11:54:21;100840.11;;;28.10;56.40
76808;BME280;65758;45.458;11.062;2023-09-18T11:56:48;100842.41;;;28.19;56.24
76808;BME280;65758;45.458;11.062;2023-09-18T11:59:15;100846.51;;;28.29;55.86
76808;BME280;65758;45.458;11.062;2023-09-18T12:01:43;100852.55;;;28.35;55.54
76808;BME280;65758;45.458;11.062;2023-09-18T12:04:27;100856.94;;;28.42;55.15
76808;BME280;65758;45.458;11.062;2023-09-18T12:06:54;100849.61;;;28.50;54.75
76808;BME280;65758;45.458;11.062;2023-09-18T12:09:21;100845.13;;;28.56;54.21
76808;BME280;65758;45.458;11.062;2023-09-18T12:11:48;100845.11;;;28.55;53.99
76808;BME280;65758;45.458;11.062;2023-09-18T12:14:19;100845.65;;;28.53;53.57
76808;BME280;65758;45.458;11.062;2023-09-18T12:16:46;100850.27;;;28.51;53.65
76808;BME280;65758;45.458;11.062;2023-09-18T12:19:17;100862.67;;;28.58;53.86
76808;BME280;65758;45.458;11.062;2023-09-18T12:21:48;100860.36;;;28.65;53.58
76808;BME280;65758;45.458;11.062;2023-09-18T12:24:20;100857.70;;;28.62;53.52
76808;BME280;65758;45.458;11.062;2023-09-18T12:26:47;100855.92;;;28.56;53.42
76808;BME280;65758;45.458;11.062;2023-09-18T12:29:15;100860.23;;;28.51;53.61
76808;BME280;65758;45.458;11.062;2023-09-18T12:31:42;100860.55;;;28.44;53.57
76808;BME280;65758;45.458;11.062;2023-09-18T12:34:18;100863.30;;;28.34;53.83
76808;BME280;65758;45.458;11.062;2023-09-18T12:36:49;100863.04;;;28.29;54.06
76808;BME280;65758;45.458;11.062;2023-09-18T12:39:17;100856.50;;;28.27;53.96
76808;BME280;65758;45.458;11.062;2023-09-18T12:41:47;100856.34;;;28.25;54.09
76808;BME280;65758;45.458;11.062;2023-09-18T12:44:15;100855.14;;;28.25;54.36
76808;BME280;65758;45.458;11.062;2023-09-18T12:46:43;100847.77;;;28.26;54.27
76808;BME280;65758;45.458;11.062;2023-09-18T12:49:21;100848.52;;;28.22;54.53
76808;BME280;65758;45.458;11.062;2023-09-18T12:51:56;100841.21;;;28.21;54.61
76808;BME280;65758;45.458;11.062;2023-09-18T12:54:43;100832.50;;;28.16;54.61